Time;durP1;ratioP1;P1;durP2;ratioP2;P2;SDS_P1;SDS_P2;PMS_P1;PMS_P2;Temp;Humidity;BMP_temperature;BMP_pressure;BME280_temperature;BME280_humidity;BME280_pressure;Samples;Min_cycle;Max_cycle;Signal;HPM_P1;HPM_P2
2022/10/07 00:02:13;;;;;;;35.00;15.00;;;;;;;5.67;80.97;101810.86;105955;1270;25406;-56
2022/10/07 00:04:45;;;;;;;26.00;11.50;;;;;;;5.65;80.93;101809.05;106092;1271;23208;-55
2022/10/07 00:07:16;;;;;;;26.00;10.90;;;;;;;5.62;80.86;101808.36;106109;1269;22599;-54
2022/10/07 00:09:47;;;;;;;25.20;10.90;;;;;;;5.58;80.98;101802.45;106222;1270;22604;-55
2022/10/07 00:12:19;;;;;;;28.10;9.80;;;;;;;5.55;80.93;101808.82;106107;1271;22696;-55
2022/10/07 00:14:51;;;;;;;24.80;10.70;;;;;;;5.52;80.95;101809.07;106109;1271;24385;-55
2022/10/07 00:17:22;;;;;;;25.70;11.50;;;;;;;5.51;80.94;101806.63;106087;1270;22653;-55
2022/10/07 00:19:53;;;;;;;25.00;9.70;;;;;;;5.49;81.12;101805.22;106314;1270;22693;-56
2022/10/07 00:22:25;;;;;;;27.50;10.70;;;;;;;5.47;81.08;101805.23;106174;1271;22557;-55
2022/10/07 00:24:57;;;;;;;24.50;11.30;;;;;;;5.45;81.16;101806.90;106115;1271;23075;-54
2022/10/07 00:27:29;;;;;;;26.80;11.00;;;;;;;5.43;81.07;101809.85;106124;1271;25292;-56
2022/10/07 00:30:00;;;;;;;31.20;11.80;;;;;;;5.39;81.14;101807.90;106112;1271;25406;-53
2022/10/07 00:32:34;;;;;;;31.00;13.70;;;;;;;5.37;81.18;101797.70;105993;1271;22563;-55
2022/10/07 00:35:06;;;;;;;33.10;14.30;;;;;;;5.35;81.33;101795.34;106030;1271;22545;-56
2022/10/07 00:37:41;;;;;;;32.90;14.80;;;;;;;5.32;81.41;101797.10;106128;1268;22550;-55
2022/10/07 00:40:14;;;;;;;40.70;15.30;;;;;;;5.29;81.48;101796.41;106031;1269;22596;-55
2022/10/07 00:42:45;;;;;;;35.20;15.10;;;;;;;5.25;81.39;101794.46;105980;1271;22550;-54
2022/10/07 00:45:20;;;;;;;34.70;15.10;;;;;;;5.21;81.35;101795.75;106116;1271;25424;-54
2022/10/07 00:47:52;;;;;;;36.30;15.10;;;;;;;5.18;81.29;101794.67;106160;1271;22538;-56
2022/10/07 00:50:29;;;;;;;33.10;14.50;;;;;;;5.13;81.34;101794.53;106139;1271;25403;-55
2022/10/07 00:53:04;;;;;;;30.30;14.10;;;;;;;5.09;81.21;101788.70;105997;1271;24360;-56
2022/10/07 00:55:35;;;;;;;33.70;12.50;;;;;;;5.06;81.26;101788.56;106160;1271;22547;-53
2022/10/07 00:58:08;;;;;;;31.00;13.50;;;;;;;5.03;81.22;101788.27;106073;1270;22580;-54
2022/10/07 01:00:41;;;;;;;31.90;12.10;;;;;;;5.02;81.24;101787.34;106028;1271;24301;-54
2022/10/07 01:03:14;;;;;;;29.70;11.80;;;;;;;4.98;81.25;101785.05;105949;1271;22522;-53
2022/10/07 01:05:45;;;;;;;28.40;10.70;;;;;;;4.95;81.47;101785.23;106187;1271;22529;-52
2022/10/07 01:08:17;;;;;;;30.60;10.90;;;;;;;4.91;81.44;101781.76;106316;1269;22527;-54
2022/10/07 01:10:58;;;;;;;22.70;8.50;;;;;;;4.90;81.48;101781.69;106097;1271;24280;-54
2022/10/07 01:13:37;;;;;;;25.30;9.50;;;;;;;4.88;81.42;101780.13;106166;1271;22570;-53
2022/10/07 01:16:16;;;;;;;23.20;8.80;;;;;;;4.86;81.37;101779.73;106052;1268;26491;-53
2022/10/07 01:18:55;;;;;;;25.20;9.40;;;;;;;4.82;81.54;101782.20;106044;1270;25370;-56
2022/10/07 01:21:38;;;;;;;24.70;8.60;;;;;;;4.81;81.67;101778.48;106134;1271;22546;-55
2022/10/07 01:24:24;;;;;;;21.90;7.80;;;;;;;4.78;81.62;101770.44;106304;1271;22561;-55
2022/10/07 01:27:01;;;;;;;23.70;9.30;;;;;;;4.75;81.59;101764.69;105999;1270;22807;-57
2022/10/07 01:29:40;;;;;;;24.60;8.30;;;;;;;4.72;81.54;101762.72;106212;1271;22609;-52
2022/10/07 01:32:19;;;;;;;23.10;8.80;;;;;;;4.68;81.62;101758.23;106156;1269;24417;-54
2022/10/07 01:34:53;;;;;;;20.70;8.40;;;;;;;4.64;81.63;101754.70;106045;1271;25427;-57
2022/10/07 01:37:29;;;;;;;24.50;8.70;;;;;;;4.62;81.64;101752.65;106024;1271;24470;-55
2022/10/07 01:40:05;;;;;;;21.20;8.00;;;;;;;4.60;81.53;101750.54;106083;1271;22527;-57
2022/10/07 01:42:37;;;;;;;19.80;7.90;;;;;;;4.57;81.59;101747.86;106100;1270;22563;-55
2022/10/07 01:45:15;;;;;;;22.20;7.80;;;;;;;4.54;81.61;101755.93;106065;1269;22643;-54
2022/10/07 01:47:47;;;;;;;28.60;10.70;;;;;;;4.52;81.64;101754.13;105986;1271;25223;-54
2022/10/07 01:50:22;;;;;;;35.70;11.30;;;;;;;4.50;81.85;101749.08;106063;1269;24157;-54
2022/10/07 01:53:11;;;;;;;30.70;11.20;;;;;;;4.48;81.92;101747.18;106013;1271;25294;-55
2022/10/07 01:55:56;;;;;;;28.10;11.90;;;;;;;4.47;81.95;101745.53;106133;1268;25274;-53
2022/10/07 01:58:50;;;;;;;32.80;13.10;;;;;;;4.44;81.96;101746.81;106492;1268;22553;-53
2022/10/07 02:01:26;;;;;;;32.30;12.10;;;;;;;4.43;82.16;101741.83;106103;1271;22526;-58
2022/10/07 02:04:16;;;;;;;35.80;13.30;;;;;;;4.41;82.23;101737.48;105979;1272;22701;-54
2022/10/07 02:06:58;;;;;;;33.50;12.30;;;;;;;4.40;82.22;101736.46;105902;1271;22609;-57
2022/10/07 02:09:36;;;;;;;31.30;13.00;;;;;;;4.39;82.24;101730.70;105964;1271;25363;-56
2022/10/07 02:12:14;;;;;;;33.00;10.70;;;;;;;4.38;82.44;101729.77;105907;1269;24284;-53
2022/10/07 02:14:55;;;;;;;32.50;11.60;;;;;;;4.36;82.37;101726.37;106041;1268;22522;-56
2022/10/07 02:17:33;;;;;;;37.90;12.40;;;;;;;4.34;82.43;101728.76;105910;1269;22566;-54
2022/10/07 02:20:08;;;;;;;36.70;12.50;;;;;;;4.33;82.46;101724.17;106038;1269;22551;-55
2022/10/07 02:22:44;;;;;;;30.30;12.10;;;;;;;4.29;82.36;101720.00;106049;1271;22556;-53
2022/10/07 02:25:19;;;;;;;42.30;15.90;;;;;;;4.27;82.38;101717.08;106048;1271;25675;-52
2022/10/07 02:27:54;;;;;;;33.00;13.10;;;;;;;4.25;82.48;101720.65;106219;1268;23433;-56
2022/10/07 02:30:25;;;;;;;32.10;11.80;;;;;;;4.20;82.33;101716.56;106006;1268;24486;-55
2022/10/07 02:33:02;;;;;;;30.70;12.70;;;;;;;4.18;82.25;101714.52;106157;1271;22579;-55
2022/10/07 02:35:40;;;;;;;32.10;11.90;;;;;;;4.14;82.33;101715.01;106027;1268;22544;-57
2022/10/07 02:38:14;;;;;;;32.80;11.80;;;;;;;4.12;82.44;101714.30;106016;1268;25321;-58
2022/10/07 02:40:54;;;;;;;30.40;11.30;;;;;;;4.11;82.55;101714.85;106200;1269;22550;-53
2022/10/07 02:43:35;;;;;;;29.20;11.10;;;;;;;4.09;82.55;101711.15;105899;1268;23235;-55
2022/10/07 02:46:11;;;;;;;22.50;9.70;;;;;;;4.09;82.54;101708.14;106108;1268;22540;-57
2022/10/07 02:48:47;;;;;;;28.10;10.90;;;;;;;4.08;82.58;101702.38;106305;1268;22547;-53
2022/10/07 02:51:23;;;;;;;32.60;11.70;;;;;;;4.06;82.64;101705.86;106041;1268;22562;-55
2022/10/07 02:53:59;;;;;;;27.20;10.60;;;;;;;4.04;82.65;101706.73;106190;1268;22591;-52
2022/10/07 02:56:33;;;;;;;29.80;11.20;;;;;;;4.02;82.67;101706.67;106034;1269;22532;-55
2022/10/07 02:59:07;;;;;;;26.20;10.60;;;;;;;3.99;82.57;101706.11;106161;1268;22547;-52
2022/10/07 03:01:44;;;;;;;28.00;8.60;;;;;;;3.95;82.49;101711.27;106001;1268;22555;-53
2022/10/07 03:04:17;;;;;;;25.90;9.80;;;;;;;3.93;82.54;101705.26;106170;1269;22565;-57
2022/10/07 03:06:49;;;;;;;26.70;9.30;;;;;;;3.89;82.56;101702.20;106078;1269;22540;-54
2022/10/07 03:09:20;;;;;;;29.30;10.90;;;;;;;3.85;82.46;101693.76;105972;1268;25313;-53
2022/10/07 03:11:54;;;;;;;28.40;10.00;;;;;;;3.82;82.46;101692.58;106053;1268;25334;-54
2022/10/07 03:14:25;;;;;;;27.20;10.60;;;;;;;3.79;82.48;101694.41;106325;1268;24330;-55
2022/10/07 03:16:57;;;;;;;29.50;9.30;;;;;;;3.75;82.49;101692.05;106194;1268;22540;-53
2022/10/07 03:19:29;;;;;;;29.60;10.40;;;;;;;3.74;82.53;101695.83;106266;1268;24402;-55
2022/10/07 03:22:01;;;;;;;26.50;9.00;;;;;;;3.72;82.46;101696.88;106070;1268;23951;-52
2022/10/07 03:24:32;;;;;;;28.00;9.70;;;;;;;3.70;82.47;101691.74;106042;1268;22563;-52
2022/10/07 03:27:04;;;;;;;28.70;8.40;;;;;;;3.68;82.46;101688.83;106009;1268;25499;-53
2022/10/07 03:29:35;;;;;;;25.70;8.70;;;;;;;3.68;82.50;101688.43;106138;1268;22615;-53
2022/10/07 03:32:07;;;;;;;20.00;7.10;;;;;;;3.67;82.55;101682.59;106389;1268;25403;-59
2022/10/07 03:34:38;;;;;;;24.10;7.00;;;;;;;3.66;82.56;101682.66;106018;1268;24255;-54
2022/10/07 03:37:09;;;;;;;18.10;7.30;;;;;;;3.65;82.63;101681.40;106026;1268;22537;-54
2022/10/07 03:39:40;;;;;;;20.40;7.40;;;;;;;3.64;82.65;101687.01;106353;1268;22541;-53
2022/10/07 03:42:12;;;;;;;21.00;7.40;;;;;;;3.62;82.75;101680.63;106042;1268;25445;-54
2022/10/07 03:44:44;;;;;;;17.50;6.90;;;;;;;3.62;82.71;101675.80;106080;1268;22618;-59
2022/10/07 03:47:16;;;;;;;16.80;6.60;;;;;;;3.61;82.75;101671.55;106257;1268;22550;-52
2022/10/07 03:49:47;;;;;;;21.80;6.90;;;;;;;3.59;82.93;101668.95;106165;1268;24266;-52
2022/10/07 03:52:19;;;;;;;18.80;7.30;;;;;;;3.59;82.91;101670.52;106108;1268;22722;-56
2022/10/07 03:54:51;;;;;;;24.10;9.20;;;;;;;3.58;83.05;101668.16;105960;1268;22526;-51
2022/10/07 04:00:13;;;;;;;25.20;9.90;;;;;;;3.57;83.20;101662.40;106198;1268;27374;-53
2022/10/07 04:02:45;;;;;;;30.80;10.30;;;;;;;3.57;83.38;101665.25;106158;1268;22613;-54
2022/10/07 04:05:16;;;;;;;37.10;13.70;;;;;;;3.57;83.44;101660.20;106112;1267;22567;-53
2022/10/07 04:07:49;;;;;;;40.30;14.50;;;;;;;3.56;83.69;101658.23;106160;1268;27135;-55
2022/10/07 04:10:21;;;;;;;53.30;22.30;;;;;;;3.56;83.85;101654.92;106017;1268;25353;-54
2022/10/07 04:12:53;;;;;;;60.90;34.70;;;;;;;3.55;83.83;101656.27;106163;1268;22587;-55
2022/10/07 04:15:24;;;;;;;66.50;42.90;;;;;;;3.55;83.78;101655.55;106111;1268;22547;-54
2022/10/07 04:17:58;;;;;;;64.90;42.50;;;;;;;3.54;83.80;101647.34;106095;1268;23214;-57
2022/10/07 04:20:31;;;;;;;65.30;40.40;;;;;;;3.53;84.02;101646.48;105987;1268;24214;-54
2022/10/07 04:23:02;;;;;;;57.10;35.10;;;;;;;3.53;84.04;101648.69;106136;1268;23757;-54
2022/10/07 04:25:33;;;;;;;50.40;29.30;;;;;;;3.53;83.95;101644.98;106003;1268;25362;-54
2022/10/07 04:28:07;;;;;;;45.10;25.50;;;;;;;3.52;83.94;101642.39;106043;1268;25407;-54
2022/10/07 04:30:42;;;;;;;47.20;24.40;;;;;;;3.52;83.83;101639.45;106311;1268;22539;-55
2022/10/07 04:33:14;;;;;;;44.00;23.30;;;;;;;3.50;83.70;101639.15;106064;1268;25291;-52
2022/10/07 04:35:46;;;;;;;33.80;20.10;;;;;;;3.48;83.76;101640.41;105961;1268;22545;-52
2022/10/07 04:38:18;;;;;;;31.80;16.80;;;;;;;3.47;83.72;101638.76;106023;1268;22555;-55
2022/10/07 04:40:51;;;;;;;31.60;15.70;;;;;;;3.45;83.88;101631.50;106048;1268;24246;-57
2022/10/07 04:43:26;;;;;;;38.10;18.20;;;;;;;3.44;83.79;101634.02;106099;1268;22529;-54
2022/10/07 04:46:03;;;;;;;38.20;19.30;;;;;;;3.42;83.85;101635.52;106161;1268;22539;-55
2022/10/07 04:48:35;;;;;;;43.80;23.30;;;;;;;3.39;83.96;101628.29;106012;1268;22585;-55
2022/10/07 04:51:09;;;;;;;37.10;21.30;;;;;;;3.38;83.85;101631.45;106155;1268;26408;-57
2022/10/07 04:53:40;;;;;;;41.20;23.60;;;;;;;3.37;83.78;101633.10;106044;1268;25503;-53
2022/10/07 04:56:12;;;;;;;46.20;27.50;;;;;;;3.35;83.80;101630.73;106153;1268;25377;-53
2022/10/07 04:58:43;;;;;;;43.90;26.70;;;;;;;3.34;83.83;101628.92;106053;1268;22570;-56
2022/10/07 05:01:15;;;;;;;42.30;26.60;;;;;;;3.32;83.71;101620.56;105846;1268;25406;-55
2022/10/07 05:03:46;;;;;;;41.60;26.70;;;;;;;3.30;83.69;101623.88;108020;1268;25493;-54
2022/10/07 05:06:18;;;;;;;45.90;28.10;;;;;;;3.28;83.72;101629.01;107584;1268;22678;-55
2022/10/07 05:08:51;;;;;;;38.50;26.40;;;;;;;3.26;83.72;101629.25;107677;1267;24419;-57
2022/10/07 05:11:24;;;;;;;43.90;24.20;;;;;;;3.26;83.73;101628.68;106064;1268;24287;-55
2022/10/07 05:13:57;;;;;;;40.70;23.00;;;;;;;3.25;83.71;101628.14;106048;1268;22556;-55
2022/10/07 05:16:28;;;;;;;32.10;18.20;;;;;;;3.24;83.81;101624.20;107170;1268;22612;-54
2022/10/07 05:18:59;;;;;;;31.90;18.60;;;;;;;3.23;83.75;101623.09;106197;1268;22529;-55
2022/10/07 05:21:32;;;;;;;30.30;17.40;;;;;;;3.22;83.82;101619.23;105886;1268;24305;-52
2022/10/07 05:24:04;;;;;;;22.90;8.10;;;;;;;3.22;84.44;101618.60;106156;1268;22554;-55
2022/10/07 05:26:36;;;;;;;23.10;9.00;;;;;;;3.25;84.64;101623.02;106071;1268;22543;-55
2022/10/07 05:29:07;;;;;;;23.70;8.20;;;;;;;3.25;84.72;101616.55;106092;1268;22548;-56
2022/10/07 05:31:39;;;;;;;22.10;7.50;;;;;;;3.26;84.75;101610.16;106136;1268;24890;-55
2022/10/07 05:34:10;;;;;;;18.70;7.00;;;;;;;3.27;84.81;101611.17;106178;1268;25537;-56
2022/10/07 05:36:41;;;;;;;21.00;6.90;;;;;;;3.28;84.88;101612.36;106149;1268;24282;-55
2022/10/07 05:39:13;;;;;;;18.70;7.10;;;;;;;3.29;84.92;101614.95;106102;1268;22531;-55
2022/10/07 05:41:44;;;;;;;20.30;6.80;;;;;;;3.31;85.07;101614.26;106060;1268;22732;-57
2022/10/07 05:44:16;;;;;;;22.80;7.40;;;;;;;3.32;85.02;101611.88;106038;1268;22979;-55
2022/10/07 05:46:47;;;;;;;20.40;7.40;;;;;;;3.34;85.57;101613.23;106047;1268;23963;-53
2022/10/07 05:49:18;;;;;;;18.90;6.40;;;;;;;3.41;85.78;101615.02;106010;1268;23791;-55
2022/10/07 05:51:50;;;;;;;17.40;6.60;;;;;;;3.44;86.22;101609.04;106255;1268;23234;-53
2022/10/07 05:54:23;;;;;;;20.00;7.30;;;;;;;3.51;86.81;101607.52;106139;1268;22541;-55
2022/10/07 05:56:54;;;;;;;28.60;8.40;;;;;;;3.54;86.57;101604.98;106055;1268;22799;-53
2022/10/07 05:59:27;;;;;;;20.50;8.60;;;;;;;3.59;86.90;101607.17;106247;1268;25507;-55
2022/10/07 06:01:59;;;;;;;22.60;9.20;;;;;;;3.64;87.12;101605.02;105980;1268;22597;-57
2022/10/07 06:04:31;;;;;;;22.10;9.20;;;;;;;3.70;87.68;101602.27;106148;1268;24198;-54
2022/10/07 06:07:04;;;;;;;21.20;8.90;;;;;;;3.78;87.80;101599.23;105984;1268;25626;-57
2022/10/07 06:15:33;;;;;;;22.40;10.10;;;;;;;4.01;88.31;101593.45;105832;1271;26070;-52
2022/10/07 06:18:05;;;;;;;30.80;12.40;;;;;;;4.07;88.51;101595.64;105977;1270;22794;-54
2022/10/07 06:20:36;;;;;;;29.50;13.50;;;;;;;4.13;88.48;101599.32;105989;1271;24293;-54
2022/10/07 06:23:08;;;;;;;25.90;10.70;;;;;;;4.20;88.49;101594.23;105896;1270;22570;-54
2022/10/07 06:25:39;;;;;;;26.90;11.10;;;;;;;4.27;88.71;101601.14;105938;1270;25442;-52
2022/10/07 06:28:10;;;;;;;26.30;10.60;;;;;;;4.33;89.04;101599.29;105888;1271;22542;-53
2022/10/07 06:30:42;;;;;;;25.20;11.00;;;;;;;4.41;89.15;101599.25;105885;1270;24215;-55
2022/10/07 06:33:13;;;;;;;27.60;10.60;;;;;;;4.47;89.26;101598.81;105925;1270;24231;-54
2022/10/07 06:35:44;;;;;;;26.00;12.30;;;;;;;4.53;89.59;101592.14;105843;1270;25382;-55
2022/10/07 06:38:16;;;;;;;24.30;10.60;;;;;;;4.59;89.57;101588.61;105838;1270;25227;-53
2022/10/07 06:40:57;;;;;;;30.30;12.30;;;;;;;4.67;89.68;101592.04;106200;1271;22655;-56
2022/10/07 06:43:29;;;;;;;30.30;13.70;;;;;;;4.75;89.90;101591.59;106106;1271;24048;-57
2022/10/07 06:46:02;;;;;;;28.40;11.90;;;;;;;4.83;90.35;101592.63;105978;1270;22696;-54
2022/10/07 06:48:35;;;;;;;30.00;13.50;;;;;;;4.92;90.47;101594.05;105931;1271;23174;-51
2022/10/07 06:51:07;;;;;;;31.50;13.60;;;;;;;5.01;90.66;101598.81;105908;1271;22964;-56
2022/10/07 06:53:38;;;;;;;28.40;13.30;;;;;;;5.09;90.65;101600.23;105646;1271;22544;-54
2022/10/07 06:56:11;;;;;;;28.30;13.20;;;;;;;5.17;90.86;101600.33;106010;1270;22694;-54
2022/10/07 06:58:43;;;;;;;26.50;12.70;;;;;;;5.25;91.20;101601.91;105928;1270;24250;-55
2022/10/07 07:01:14;;;;;;;30.30;14.00;;;;;;;5.32;91.10;101599.62;105802;1271;25403;-52
2022/10/07 07:03:46;;;;;;;33.50;14.00;;;;;;;5.38;91.27;101603.05;105632;1270;24218;-51
2022/10/07 07:06:17;;;;;;;29.80;14.00;;;;;;;5.44;91.50;101597.15;105825;1271;24275;-55
2022/10/07 07:08:49;;;;;;;32.30;14.40;;;;;;;5.51;91.41;101597.55;105905;1270;22744;-55
2022/10/07 07:11:36;;;;;;;32.60;15.00;;;;;;;5.57;91.36;101597.32;105976;1271;22688;-54
2022/10/07 07:14:08;;;;;;;31.60;15.50;;;;;;;5.66;91.85;101597.29;105750;1271;23894;-55
2022/10/07 07:16:40;;;;;;;33.10;16.10;;;;;;;5.74;92.07;101595.62;105754;1271;25323;-53
2022/10/07 07:19:14;;;;;;;31.40;15.10;;;;;;;5.86;92.27;101594.87;105920;1270;22764;-51
2022/10/07 07:21:46;;;;;;;32.50;16.10;;;;;;;5.96;92.60;101595.86;105601;1271;25398;-53
2022/10/07 07:24:19;;;;;;;36.40;17.10;;;;;;;6.05;92.75;101592.49;105720;1270;25349;-51
2022/10/07 07:26:51;;;;;;;35.80;18.20;;;;;;;6.15;92.93;101589.52;105894;1271;23001;-57
2022/10/07 07:29:22;;;;;;;38.70;18.50;;;;;;;6.26;93.43;101583.58;105743;1270;22609;-54
2022/10/07 07:31:53;;;;;;;43.40;21.10;;;;;;;6.36;93.53;101584.64;105966;1271;24521;-57
2022/10/07 07:34:25;;;;;;;40.60;18.80;;;;;;;6.44;93.34;101580.94;105722;1270;22691;-58
2022/10/07 07:36:56;;;;;;;38.60;19.80;;;;;;;6.54;93.57;101582.62;105910;1270;22551;-56
2022/10/07 07:39:27;;;;;;;41.80;22.10;;;;;;;6.67;93.89;101587.52;105844;1271;22731;-55
2022/10/07 07:41:59;;;;;;;47.20;21.00;;;;;;;6.76;93.75;101583.63;105729;1270;22721;-56
2022/10/07 07:44:30;;;;;;;43.70;21.80;;;;;;;6.87;94.27;101580.27;105719;1270;22617;-54
2022/10/07 07:47:01;;;;;;;44.10;21.60;;;;;;;6.97;94.20;101580.83;105866;1270;23301;-55
2022/10/07 07:49:34;;;;;;;43.00;21.70;;;;;;;7.09;94.66;101575.39;106014;1271;24348;-55
2022/10/07 07:52:07;;;;;;;44.40;21.20;;;;;;;7.20;94.66;101563.06;105909;1270;22548;-55
2022/10/07 07:54:40;;;;;;;43.50;21.20;;;;;;;7.30;94.86;101558.00;105754;1270;24418;-56
2022/10/07 07:57:12;;;;;;;42.40;22.10;;;;;;;7.42;95.40;101555.27;105895;1270;22554;-53
2022/10/07 07:59:43;;;;;;;44.10;21.50;;;;;;;7.56;96.05;101554.21;105960;1270;24319;-52
2022/10/07 08:02:15;;;;;;;42.00;20.70;;;;;;;7.68;96.23;101555.14;106080;1269;22690;-55
2022/10/07 08:04:46;;;;;;;47.30;21.50;;;;;;;7.77;95.78;101546.86;105901;1270;26559;-53
2022/10/07 08:07:18;;;;;;;41.80;21.10;;;;;;;7.88;96.47;101547.83;105903;1271;24234;-56
2022/10/07 08:09:49;;;;;;;41.70;20.70;;;;;;;7.97;95.92;101545.24;105836;1270;25204;-54
2022/10/07 08:12:22;;;;;;;43.50;19.00;;;;;;;8.04;95.55;101538.59;105951;1271;25410;-55
2022/10/07 08:14:53;;;;;;;43.80;20.70;;;;;;;8.12;96.07;101538.18;105880;1270;22709;-52
2022/10/07 08:17:24;;;;;;;44.50;21.50;;;;;;;8.23;96.65;101531.74;105827;1270;25416;-55
2022/10/07 08:19:56;;;;;;;41.60;20.30;;;;;;;8.32;96.38;101528.92;105950;1270;25640;-56
2022/10/07 08:22:27;;;;;;;48.30;23.50;;;;;;;8.38;95.97;101523.85;105884;1270;22527;-52
2022/10/07 08:24:59;;;;;;;44.20;22.80;;;;;;;8.46;96.36;101520.17;106104;1270;22547;-56
2022/10/07 08:27:30;;;;;;;44.50;23.00;;;;;;;8.55;96.42;101521.70;105851;1270;22579;-54
2022/10/07 08:30:02;;;;;;;48.10;24.30;;;;;;;8.64;96.68;101519.32;105975;1271;22561;-56
2022/10/07 08:32:33;;;;;;;47.90;22.60;;;;;;;8.73;96.80;101515.04;105897;1270;25506;-55
2022/10/07 08:35:05;;;;;;;39.30;19.40;;;;;;;8.82;96.88;101509.65;105758;1270;22522;-56
2022/10/07 08:37:37;;;;;;;39.80;19.70;;;;;;;8.92;96.94;101508.45;105908;1270;23192;-55
2022/10/07 08:40:17;;;;;;;36.90;17.40;;;;;;;9.01;96.87;101502.55;105866;1270;24419;-56
2022/10/07 08:42:49;;;;;;;34.90;17.40;;;;;;;9.14;97.34;101505.47;105760;1270;25236;-55
2022/10/07 08:45:30;;;;;;;38.30;18.30;;;;;;;9.25;97.40;101502.00;105761;1270;25352;-55
2022/10/07 08:48:10;;;;;;;32.50;15.30;;;;;;;9.40;97.41;101498.61;106224;1268;22615;-56
2022/10/07 08:50:49;;;;;;;33.70;14.20;;;;;;;9.51;96.91;101499.88;105879;1270;22612;-55
2022/10/07 08:53:29;;;;;;;31.10;13.30;;;;;;;9.65;97.62;101496.31;106069;1270;22820;-55
2022/10/07 08:56:12;;;;;;;26.10;12.80;;;;;;;9.88;97.88;101493.80;105719;1269;25502;-56
2022/10/07 08:58:59;;;;;;;29.90;12.20;;;;;;;10.09;97.82;101493.89;105884;1271;26080;-55
2022/10/07 09:01:44;;;;;;;24.90;11.70;;;;;;;10.27;97.57;101487.51;108543;1269;24233;-55
2022/10/07 09:04:27;;;;;;;24.80;11.10;;;;;;;10.49;97.50;101483.14;105537;1270;69332;-56
2022/10/07 09:07:02;;;;;;;25.80;9.80;;;;;;;10.65;96.95;101478.28;105967;1271;25477;-56
2022/10/07 09:09:39;;;;;;;23.30;9.20;;;;;;;10.79;96.70;101474.23;106120;1270;25393;-55
2022/10/07 09:12:17;;;;;;;21.50;8.40;;;;;;;10.98;96.47;101468.70;106118;1270;25346;-54
2022/10/07 09:14:52;;;;;;;19.90;7.40;;;;;;;11.18;96.22;101466.45;105805;1270;25433;-58
2022/10/07 09:17:28;;;;;;;18.90;6.00;;;;;;;11.33;95.79;101465.36;105875;1270;22547;-55
2022/10/07 09:20:04;;;;;;;17.00;6.40;;;;;;;11.42;95.50;101464.45;105832;1270;22708;-55
2022/10/07 09:22:39;;;;;;;18.30;5.60;;;;;;;11.50;95.07;101458.83;105886;1270;22690;-55
2022/10/07 09:25:22;;;;;;;17.40;5.50;;;;;;;11.58;94.87;101451.98;105795;1270;22531;-53
2022/10/07 09:27:54;;;;;;;20.80;6.10;;;;;;;11.67;94.62;101451.46;106071;1270;25541;-55
2022/10/07 09:30:28;;;;;;;16.80;6.20;;;;;;;11.76;94.46;101443.72;106070;1270;22694;-55
2022/10/07 09:33:00;;;;;;;18.40;5.40;;;;;;;11.86;94.68;101440.45;105549;1271;22530;-55
2022/10/07 09:35:32;;;;;;;19.20;5.80;;;;;;;11.97;94.61;101436.23;106120;1270;22578;-54
2022/10/07 09:38:08;;;;;;;21.40;5.30;;;;;;;12.03;94.18;101433.60;105992;1270;22550;-54
2022/10/07 09:43:29;;;;;;;16.40;5.40;;;;;;;12.22;94.03;101424.27;105892;1270;26134;-54
2022/10/07 09:46:01;;;;;;;16.80;6.30;;;;;;;12.36;93.80;101421.54;106305;1270;23214;-56
2022/10/07 09:48:34;;;;;;;16.60;5.80;;;;;;;12.46;93.41;101415.52;105783;1270;22635;-55
2022/10/07 09:51:23;;;;;;;21.30;6.80;;;;;;;12.52;93.35;101416.96;105945;1270;25236;-55
2022/10/07 09:54:00;;;;;;;19.10;6.70;;;;;;;12.55;93.11;101410.65;105806;1270;26509;-56
2022/10/07 09:56:41;;;;;;;19.50;5.70;;;;;;;12.63;93.29;101412.91;105947;1269;22538;-58
2022/10/07 09:59:24;;;;;;;14.60;5.80;;;;;;;12.78;93.09;101410.05;106062;1270;22537;-56
2022/10/07 10:01:58;;;;;;;15.30;5.00;;;;;;;12.88;93.21;101406.91;105988;1271;24308;-56
2022/10/07 10:04:34;;;;;;;16.60;6.20;;;;;;;12.99;92.88;101404.41;106109;1270;22547;-57
2022/10/07 10:07:17;;;;;;;16.00;5.80;;;;;;;13.10;92.52;101398.61;105981;1270;22689;-57
2022/10/07 10:09:53;;;;;;;14.20;5.70;;;;;;;13.18;92.22;101389.66;105996;1269;24271;-56
2022/10/07 10:12:27;;;;;;;14.30;4.70;;;;;;;13.27;91.99;101383.33;106007;1270;24253;-56
2022/10/07 10:15:01;;;;;;;14.90;5.20;;;;;;;13.37;92.00;101383.64;105802;1270;25521;-56
2022/10/07 10:17:39;;;;;;;15.00;4.90;;;;;;;13.52;91.76;101375.72;106016;1270;23213;-55
2022/10/07 10:20:34;;;;;;;16.60;5.50;;;;;;;13.66;91.26;101376.08;106124;1270;25582;-56
2022/10/07 10:23:27;;;;;;;20.20;5.80;;;;;;;13.74;90.93;101374.02;106001;1270;24336;-57
2022/10/07 10:26:28;;;;;;;16.10;5.90;;;;;;;13.85;91.24;101370.95;106251;1270;22691;-56
2022/10/07 10:29:11;;;;;;;17.30;6.00;;;;;;;14.01;91.30;101369.28;105978;1270;22528;-56
2022/10/07 10:32:02;;;;;;;18.80;5.40;;;;;;;14.08;90.56;101360.11;105769;1270;22550;-55
2022/10/07 10:34:46;;;;;;;16.10;5.50;;;;;;;14.16;90.27;101360.29;106015;1270;22634;-56
2022/10/07 10:37:20;;;;;;;18.10;6.00;;;;;;;14.22;89.99;101359.65;105871;1270;22646;-56
2022/10/07 10:40:06;;;;;;;19.20;5.80;;;;;;;14.26;89.56;101353.25;105925;1270;22541;-57
2022/10/07 10:43:28;;;;;;;15.10;5.10;;;;;;;14.30;89.35;101344.48;100523;1335;545045;-56
2022/10/07 10:46:27;;;;;;;19.40;5.40;;;;;;;14.32;89.38;101339.10;102510;1291;22569;-57
2022/10/07 10:49:09;;;;;;;19.80;6.20;;;;;;;14.37;89.16;101330.90;102359;1292;22507;-57
2022/10/07 10:52:04;;;;;;;18.60;5.90;;;;;;;14.46;89.02;101322.75;102331;1291;22491;-58
2022/10/07 10:54:46;;;;;;;16.60;4.90;;;;;;;14.54;88.98;101317.41;102421;1291;22484;-57
2022/10/07 10:57:26;;;;;;;15.10;4.90;;;;;;;14.64;88.82;101308.05;102200;1289;266188;-57
2022/10/07 11:00:08;;;;;;;17.10;4.60;;;;;;;14.76;88.52;101304.91;102439;1312;23232;-56
2022/10/07 11:03:23;;;;;;;12.60;4.60;;;;;;;14.91;88.30;101297.36;102600;1288;22894;-56
2022/10/07 11:05:57;;;;;;;18.60;4.60;;;;;;;15.04;87.74;101287.08;101977;1296;25801;-58
2022/10/07 11:08:32;;;;;;;18.50;4.60;;;;;;;15.13;87.63;101284.02;101749;1297;24940;-58
2022/10/07 11:11:10;;;;;;;18.90;5.30;;;;;;;15.20;87.30;101276.45;101561;1324;23888;-57
2022/10/07 11:13:47;;;;;;;22.60;6.50;;;;;;;15.30;87.17;101272.67;101592;1301;22638;-58
2022/10/07 11:16:24;;;;;;;20.90;4.20;;;;;;;15.39;86.84;101268.07;101760;1300;24250;-58
2022/10/07 11:19:00;;;;;;;16.00;3.80;;;;;;;15.46;86.73;101260.58;101622;1307;22523;-58
2022/10/07 11:21:38;;;;;;;23.70;5.10;;;;;;;15.50;86.35;101256.69;101649;1299;22527;-58
2022/10/07 11:24:18;;;;;;;94.70;15.10;;;;;;;15.54;86.18;101252.31;101857;1300;23047;-55
2022/10/07 11:26:52;;;;;;;19.20;4.00;;;;;;;15.62;85.73;101250.84;101688;1299;25335;-56
2022/10/07 11:29:31;;;;;;;14.30;3.70;;;;;;;15.69;85.47;101239.38;101699;1302;25332;-56
2022/10/07 11:32:08;;;;;;;16.20;4.00;;;;;;;15.73;84.91;101234.94;101680;1299;24245;-57
2022/10/07 11:34:47;;;;;;;15.40;4.90;;;;;;;15.79;85.07;101228.25;101700;1321;22495;-57
2022/10/07 11:37:25;;;;;;;17.30;4.90;;;;;;;15.81;84.73;101224.90;101957;1301;22628;-57
2022/10/07 11:39:56;;;;;;;17.80;4.40;;;;;;;15.84;84.78;101220.59;102309;1290;22531;-57
2022/10/07 11:42:31;;;;;;;15.80;3.80;;;;;;;15.88;84.76;101217.57;102352;1285;24334;-57
2022/10/07 11:45:06;;;;;;;11.90;3.10;;;;;;;15.94;84.29;101212.12;102392;1302;22511;-56
2022/10/07 11:47:42;;;;;;;14.00;3.50;;;;;;;16.01;83.72;101208.16;102414;1284;22608;-57
2022/10/07 11:50:19;;;;;;;11.30;3.00;;;;;;;16.09;83.71;101205.86;102289;1316;25499;-57
2022/10/07 11:52:53;;;;;;;11.20;2.90;;;;;;;16.15;83.26;101198.85;102362;1297;22487;-58
2022/10/07 11:55:29;;;;;;;15.80;3.50;;;;;;;16.18;83.31;101198.59;102327;1292;25475;-58
2022/10/07 11:58:02;;;;;;;11.60;3.10;;;;;;;16.24;83.30;101193.52;102312;1291;26509;-58
2022/10/07 12:00:38;;;;;;;18.00;4.50;;;;;;;16.29;82.86;101182.20;102293;1292;24266;-58